sensor_id;sensor_type;location;lat;lon;timestamp;P1;durP1;ratioP1;P2;durP2;ratioP2
47535;SDS011;33278;50.826;9.030;2022-08-16T00:00:40;3.30;;;3.00;;
47535;SDS011;33278;50.826;9.030;2022-08-16T00:03:12;3.92;;;3.00;;
47535;SDS011;33278;50.826;9.030;2022-08-16T00:05:43;3.67;;;3.38;;
47535;SDS011;33278;50.826;9.030;2022-08-16T00:08:14;3.53;;;3.08;;
47535;SDS011;33278;50.826;9.030;2022-08-16T00:10:45;3.97;;;3.00;;
47535;SDS011;33278;50.826;9.030;2022-08-16T00:13:15;3.50;;;3.20;;
47535;SDS011;33278;50.826;9.030;2022-08-16T00:15:47;3.17;;;2.88;;
47535;SDS011;33278;50.826;9.030;2022-08-16T00:18:18;3.78;;;3.22;;
47535;SDS011;33278;50.826;9.030;2022-08-16T00:20:49;3.28;;;2.90;;
47535;SDS011;33278;50.826;9.030;2022-08-16T00:23:20;2.60;;;2.40;;
47535;SDS011;33278;50.826;9.030;2022-08-16T00:25:50;3.35;;;2.88;;
47535;SDS011;33278;50.826;9.030;2022-08-16T00:28:21;3.10;;;2.90;;
47535;SDS011;33278;50.826;9.030;2022-08-16T00:30:52;3.13;;;2.83;;
47535;SDS011;33278;50.826;9.030;2022-08-16T00:33:22;3.55;;;3.25;;
47535;SDS011;33278;50.826;9.030;2022-08-16T00:35:53;3.50;;;3.10;;
47535;SDS011;33278;50.826;9.030;2022-08-16T00:38:23;3.55;;;3.25;;
47535;SDS011;33278;50.826;9.030;2022-08-16T00:40:54;3.20;;;2.90;;
47535;SDS011;33278;50.826;9.030;2022-08-16T00:43:32;3.42;;;3.15;;
47535;SDS011;33278;50.826;9.030;2022-08-16T00:46:06;3.20;;;2.90;;
47535;SDS011;33278;50.826;9.030;2022-08-16T00:48:43;3.42;;;2.88;;
47535;SDS011;33278;50.826;9.030;2022-08-16T00:51:14;2.75;;;2.55;;
47535;SDS011;33278;50.826;9.030;2022-08-16T00:53:47;3.55;;;3.25;;
47535;SDS011;33278;50.826;9.030;2022-08-16T00:56:20;3.65;;;3.25;;
47535;SDS011;33278;50.826;9.030;2022-08-16T00:58:53;3.17;;;2.88;;
47535;SDS011;33278;50.826;9.030;2022-08-16T01:01:23;4.03;;;3.53;;
47535;SDS011;33278;50.826;9.030;2022-08-16T01:03:55;4.40;;;3.15;;
47535;SDS011;33278;50.826;9.030;2022-08-16T01:06:26;3.53;;;3.22;;
47535;SDS011;33278;50.826;9.030;2022-08-16T01:08:58;3.90;;;2.95;;
47535;SDS011;33278;50.826;9.030;2022-08-16T01:11:30;3.38;;;3.10;;
47535;SDS011;33278;50.826;9.030;2022-08-16T01:16:43;3.42;;;3.13;;
47535;SDS011;33278;50.826;9.030;2022-08-16T01:19:28;3.25;;;2.95;;
47535;SDS011;33278;50.826;9.030;2022-08-16T01:22:05;4.30;;;3.45;;
47535;SDS011;33278;50.826;9.030;2022-08-16T01:24:45;3.20;;;3.00;;
47535;SDS011;33278;50.826;9.030;2022-08-16T01:27:29;3.10;;;2.90;;
47535;SDS011;33278;50.826;9.030;2022-08-16T01:30:09;3.40;;;3.05;;
47535;SDS011;33278;50.826;9.030;2022-08-16T01:32:49;3.80;;;3.50;;
47535;SDS011;33278;50.826;9.030;2022-08-16T01:38:31;3.63;;;3.20;;
47535;SDS011;33278;50.826;9.030;2022-08-16T01:41:09;3.47;;;3.15;;
47535;SDS011;33278;50.826;9.030;2022-08-16T01:43:46;3.50;;;3.25;;
47535;SDS011;33278;50.826;9.030;2022-08-16T01:49:02;4.30;;;3.28;;
47535;SDS011;33278;50.826;9.030;2022-08-16T01:51:36;4.07;;;3.17;;
47535;SDS011;33278;50.826;9.030;2022-08-16T01:54:07;3.30;;;3.00;;
47535;SDS011;33278;50.826;9.030;2022-08-16T01:56:39;3.30;;;3.00;;
47535;SDS011;33278;50.826;9.030;2022-08-16T01:59:10;3.47;;;3.17;;
47535;SDS011;33278;50.826;9.030;2022-08-16T02:01:43;4.30;;;3.03;;
47535;SDS011;33278;50.826;9.030;2022-08-16T02:04:15;9.73;;;3.42;;
47535;SDS011;33278;50.826;9.030;2022-08-16T02:06:46;3.65;;;3.35;;
47535;SDS011;33278;50.826;9.030;2022-08-16T02:09:17;3.50;;;3.20;;
47535;SDS011;33278;50.826;9.030;2022-08-16T02:11:50;4.32;;;3.40;;
47535;SDS011;33278;50.826;9.030;2022-08-16T02:14:23;5.82;;;3.80;;
47535;SDS011;33278;50.826;9.030;2022-08-16T02:16:56;3.83;;;3.28;;
47535;SDS011;33278;50.826;9.030;2022-08-16T02:19:28;4.03;;;3.60;;
47535;SDS011;33278;50.826;9.030;2022-08-16T02:22:00;6.40;;;3.72;;
47535;SDS011;33278;50.826;9.030;2022-08-16T02:24:32;4.35;;;3.95;;
47535;SDS011;33278;50.826;9.030;2022-08-16T02:27:03;4.07;;;3.67;;
47535;SDS011;33278;50.826;9.030;2022-08-16T02:29:33;5.93;;;3.65;;
47535;SDS011;33278;50.826;9.030;2022-08-16T02:32:04;5.03;;;4.53;;
47535;SDS011;33278;50.826;9.030;2022-08-16T02:34:35;4.82;;;4.43;;
47535;SDS011;33278;50.826;9.030;2022-08-16T02:37:06;4.22;;;3.83;;
47535;SDS011;33278;50.826;9.030;2022-08-16T02:39:36;6.80;;;4.50;;
47535;SDS011;33278;50.826;9.030;2022-08-16T02:42:06;8.23;;;4.68;;
47535;SDS011;33278;50.826;9.030;2022-08-16T02:44:37;10.38;;;4.00;;
47535;SDS011;33278;50.826;9.030;2022-08-16T02:47:07;11.88;;;4.60;;
47535;SDS011;33278;50.826;9.030;2022-08-16T02:49:37;7.07;;;4.45;;
47535;SDS011;33278;50.826;9.030;2022-08-16T02:52:08;7.05;;;3.88;;
47535;SDS011;33278;50.826;9.030;2022-08-16T02:54:40;5.50;;;3.70;;
47535;SDS011;33278;50.826;9.030;2022-08-16T02:57:10;4.50;;;3.38;;
47535;SDS011;33278;50.826;9.030;2022-08-16T02:59:40;4.13;;;3.70;;
47535;SDS011;33278;50.826;9.030;2022-08-16T03:02:11;6.35;;;3.80;;
47535;SDS011;33278;50.826;9.030;2022-08-16T03:04:42;3.90;;;3.33;;
47535;SDS011;33278;50.826;9.030;2022-08-16T03:07:12;4.30;;;3.90;;
47535;SDS011;33278;50.826;9.030;2022-08-16T03:09:43;4.93;;;3.58;;
47535;SDS011;33278;50.826;9.030;2022-08-16T03:12:13;5.70;;;3.80;;
47535;SDS011;33278;50.826;9.030;2022-08-16T03:14:44;4.68;;;3.65;;
47535;SDS011;33278;50.826;9.030;2022-08-16T03:17:15;4.07;;;3.58;;
47535;SDS011;33278;50.826;9.030;2022-08-16T03:19:46;3.70;;;3.40;;
47535;SDS011;33278;50.826;9.030;2022-08-16T03:22:17;3.65;;;3.35;;
47535;SDS011;33278;50.826;9.030;2022-08-16T03:24:48;3.88;;;3.20;;
47535;SDS011;33278;50.826;9.030;2022-08-16T03:27:18;4.50;;;3.42;;
47535;SDS011;33278;50.826;9.030;2022-08-16T03:29:49;3.30;;;3.00;;
47535;SDS011;33278;50.826;9.030;2022-08-16T03:32:19;3.95;;;3.55;;
47535;SDS011;33278;50.826;9.030;2022-08-16T03:34:49;3.70;;;3.05;;
47535;SDS011;33278;50.826;9.030;2022-08-16T03:37:20;4.82;;;3.65;;
47535;SDS011;33278;50.826;9.030;2022-08-16T03:39:50;3.30;;;3.05;;
47535;SDS011;33278;50.826;9.030;2022-08-16T03:42:20;4.05;;;3.65;;
47535;SDS011;33278;50.826;9.030;2022-08-16T03:44:51;3.60;;;3.22;;
47535;SDS011;33278;50.826;9.030;2022-08-16T03:47:22;4.28;;;3.63;;
47535;SDS011;33278;50.826;9.030;2022-08-16T03:49:52;3.25;;;2.88;;
47535;SDS011;33278;50.826;9.030;2022-08-16T03:52:23;3.80;;;3.50;;
47535;SDS011;33278;50.826;9.030;2022-08-16T03:54:53;3.60;;;3.30;;
47535;SDS011;33278;50.826;9.030;2022-08-16T03:57:24;3.20;;;2.90;;
47535;SDS011;33278;50.826;9.030;2022-08-16T03:59:55;3.80;;;3.28;;
47535;SDS011;33278;50.826;9.030;2022-08-16T04:02:26;3.72;;;3.42;;
47535;SDS011;33278;50.826;9.030;2022-08-16T04:04:57;4.07;;;3.67;;
47535;SDS011;33278;50.826;9.030;2022-08-16T04:07:27;3.50;;;3.15;;
47535;SDS011;33278;50.826;9.030;2022-08-16T04:09:57;3.58;;;2.95;;
47535;SDS011;33278;50.826;9.030;2022-08-16T04:12:28;4.82;;;3.33;;
47535;SDS011;33278;50.826;9.030;2022-08-16T04:14:58;5.13;;;3.58;;
47535;SDS011;33278;50.826;9.030;2022-08-16T04:17:31;4.15;;;3.63;;
47535;SDS011;33278;50.826;9.030;2022-08-16T04:20:01;3.42;;;3.15;;
47535;SDS011;33278;50.826;9.030;2022-08-16T04:22:37;3.55;;;3.25;;
47535;SDS011;33278;50.826;9.030;2022-08-16T04:25:08;3.17;;;2.80;;
47535;SDS011;33278;50.826;9.030;2022-08-16T04:27:40;3.75;;;3.13;;
47535;SDS011;33278;50.826;9.030;2022-08-16T04:30:11;3.50;;;3.20;;
47535;SDS011;33278;50.826;9.030;2022-08-16T04:32:44;4.35;;;3.08;;
47535;SDS011;33278;50.826;9.030;2022-08-16T04:35:16;3.63;;;3.33;;
47535;SDS011;33278;50.826;9.030;2022-08-16T04:37:49;5.32;;;4.38;;
47535;SDS011;33278;50.826;9.030;2022-08-16T04:40:20;4.32;;;3.35;;
47535;SDS011;33278;50.826;9.030;2022-08-16T04:42:51;4.03;;;3.58;;
47535;SDS011;33278;50.826;9.030;2022-08-16T04:45:22;4.78;;;3.28;;
47535;SDS011;33278;50.826;9.030;2022-08-16T04:47:53;3.60;;;3.30;;
47535;SDS011;33278;50.826;9.030;2022-08-16T04:50:24;3.70;;;3.40;;
47535;SDS011;33278;50.826;9.030;2022-08-16T04:52:57;4.07;;;3.40;;
47535;SDS011;33278;50.826;9.030;2022-08-16T04:55:28;3.80;;;3.42;;
47535;SDS011;33278;50.826;9.030;2022-08-16T04:58:00;3.97;;;3.20;;
47535;SDS011;33278;50.826;9.030;2022-08-16T05:00:32;3.88;;;3.28;;
47535;SDS011;33278;50.826;9.030;2022-08-16T05:03:04;3.25;;;3.03;;
47535;SDS011;33278;50.826;9.030;2022-08-16T05:05:38;3.30;;;3.00;;
47535;SDS011;33278;50.826;9.030;2022-08-16T05:08:10;3.90;;;3.17;;
47535;SDS011;33278;50.826;9.030;2022-08-16T05:10:40;3.50;;;3.20;;
47535;SDS011;33278;50.826;9.030;2022-08-16T05:13:11;3.30;;;3.00;;
47535;SDS011;33278;50.826;9.030;2022-08-16T05:15:41;3.50;;;3.20;;
47535;SDS011;33278;50.826;9.030;2022-08-16T05:18:12;3.80;;;3.40;;
47535;SDS011;33278;50.826;9.030;2022-08-16T05:20:43;3.63;;;3.10;;
47535;SDS011;33278;50.826;9.030;2022-08-16T05:23:13;4.00;;;3.38;;
47535;SDS011;33278;50.826;9.030;2022-08-16T05:25:45;3.88;;;3.33;;
47535;SDS011;33278;50.826;9.030;2022-08-16T05:28:16;3.95;;;3.30;;
47535;SDS011;33278;50.826;9.030;2022-08-16T05:30:47;3.40;;;3.13;;
47535;SDS011;33278;50.826;9.030;2022-08-16T05:33:20;3.35;;;3.05;;
47535;SDS011;33278;50.826;9.030;2022-08-16T05:35:50;4.05;;;3.25;;
47535;SDS011;33278;50.826;9.030;2022-08-16T05:38:21;4.78;;;3.60;;
47535;SDS011;33278;50.826;9.030;2022-08-16T05:40:59;3.88;;;3.53;;
47535;SDS011;33278;50.826;9.030;2022-08-16T05:43:30;9.50;;;3.67;;
47535;SDS011;33278;50.826;9.030;2022-08-16T05:46:00;5.28;;;4.32;;
47535;SDS011;33278;50.826;9.030;2022-08-16T05:48:31;7.03;;;4.68;;
47535;SDS011;33278;50.826;9.030;2022-08-16T05:51:01;5.45;;;5.05;;
47535;SDS011;33278;50.826;9.030;2022-08-16T05:53:31;6.50;;;5.18;;
47535;SDS011;33278;50.826;9.030;2022-08-16T05:56:02;5.53;;;4.97;;
47535;SDS011;33278;50.826;9.030;2022-08-16T05:58:33;5.57;;;5.07;;
47535;SDS011;33278;50.826;9.030;2022-08-16T06:01:03;5.40;;;4.97;;
47535;SDS011;33278;50.826;9.030;2022-08-16T06:03:34;7.88;;;5.68;;
47535;SDS011;33278;50.826;9.030;2022-08-16T06:06:04;7.72;;;5.90;;
47535;SDS011;33278;50.826;9.030;2022-08-16T06:08:35;7.45;;;6.63;;
47535;SDS011;33278;50.826;9.030;2022-08-16T06:11:06;8.70;;;5.88;;
47535;SDS011;33278;50.826;9.030;2022-08-16T06:13:38;7.55;;;5.13;;
47535;SDS011;33278;50.826;9.030;2022-08-16T06:16:08;6.57;;;5.50;;
47535;SDS011;33278;50.826;9.030;2022-08-16T06:18:38;6.32;;;5.03;;
47535;SDS011;33278;50.826;9.030;2022-08-16T06:21:09;6.10;;;5.60;;
47535;SDS011;33278;50.826;9.030;2022-08-16T06:23:40;6.38;;;5.45;;
47535;SDS011;33278;50.826;9.030;2022-08-16T06:26:11;7.68;;;5.43;;
47535;SDS011;33278;50.826;9.030;2022-08-16T06:28:41;6.05;;;5.50;;
47535;SDS011;33278;50.826;9.030;2022-08-16T06:31:12;5.93;;;5.43;;
47535;SDS011;33278;50.826;9.030;2022-08-16T06:33:43;6.60;;;5.43;;
47535;SDS011;33278;50.826;9.030;2022-08-16T06:36:15;7.38;;;5.20;;
47535;SDS011;33278;50.826;9.030;2022-08-16T06:38:45;6.72;;;5.18;;
47535;SDS011;33278;50.826;9.030;2022-08-16T06:41:16;6.32;;;4.40;;
47535;SDS011;33278;50.826;9.030;2022-08-16T06:43:47;5.15;;;4.65;;
47535;SDS011;33278;50.826;9.030;2022-08-16T06:46:26;5.07;;;4.47;;
47535;SDS011;33278;50.826;9.030;2022-08-16T06:49:03;4.85;;;4.38;;
47535;SDS011;33278;50.826;9.030;2022-08-16T06:51:36;5.35;;;4.85;;
47535;SDS011;33278;50.826;9.030;2022-08-16T06:56:39;5.07;;;4.32;;
47535;SDS011;33278;50.826;9.030;2022-08-16T06:59:11;4.57;;;4.18;;
47535;SDS011;33278;50.826;9.030;2022-08-16T07:01:42;6.45;;;5.03;;
47535;SDS011;33278;50.826;9.030;2022-08-16T07:04:12;5.70;;;4.20;;
47535;SDS011;33278;50.826;9.030;2022-08-16T07:06:43;6.35;;;4.63;;
47535;SDS011;33278;50.826;9.030;2022-08-16T07:09:13;4.30;;;3.88;;
47535;SDS011;33278;50.826;9.030;2022-08-16T07:11:44;4.63;;;4.10;;
47535;SDS011;33278;50.826;9.030;2022-08-16T07:14:14;4.30;;;3.83;;
47535;SDS011;33278;50.826;9.030;2022-08-16T07:16:45;4.35;;;3.95;;
47535;SDS011;33278;50.826;9.030;2022-08-16T07:19:15;7.10;;;3.97;;
47535;SDS011;33278;50.826;9.030;2022-08-16T07:21:45;4.05;;;3.70;;
47535;SDS011;33278;50.826;9.030;2022-08-16T07:24:16;5.05;;;4.15;;
47535;SDS011;33278;50.826;9.030;2022-08-16T07:26:46;4.55;;;4.07;;
47535;SDS011;33278;50.826;9.030;2022-08-16T07:29:17;4.20;;;3.80;;
47535;SDS011;33278;50.826;9.030;2022-08-16T07:31:47;8.35;;;4.47;;
47535;SDS011;33278;50.826;9.030;2022-08-16T07:34:17;5.43;;;4.13;;
47535;SDS011;33278;50.826;9.030;2022-08-16T07:36:47;4.00;;;3.40;;
47535;SDS011;33278;50.826;9.030;2022-08-16T07:39:18;6.28;;;4.47;;
47535;SDS011;33278;50.826;9.030;2022-08-16T07:41:48;4.60;;;4.10;;
47535;SDS011;33278;50.826;9.030;2022-08-16T07:44:18;4.05;;;3.65;;
47535;SDS011;33278;50.826;9.030;2022-08-16T07:46:49;4.05;;;3.67;;
47535;SDS011;33278;50.826;9.030;2022-08-16T07:49:19;4.38;;;3.58;;
47535;SDS011;33278;50.826;9.030;2022-08-16T07:51:49;4.55;;;4.07;;
47535;SDS011;33278;50.826;9.030;2022-08-16T07:54:19;4.95;;;4.38;;
47535;SDS011;33278;50.826;9.030;2022-08-16T07:56:50;3.90;;;3.60;;
47535;SDS011;33278;50.826;9.030;2022-08-16T07:59:20;3.78;;;3.47;;
47535;SDS011;33278;50.826;9.030;2022-08-16T08:01:53;5.22;;;3.70;;
47535;SDS011;33278;50.826;9.030;2022-08-16T08:04:24;3.88;;;3.30;;
47535;SDS011;33278;50.826;9.030;2022-08-16T08:06:55;3.70;;;3.40;;
47535;SDS011;33278;50.826;9.030;2022-08-16T08:09:25;4.25;;;3.85;;
47535;SDS011;33278;50.826;9.030;2022-08-16T08:11:56;4.13;;;3.47;;
47535;SDS011;33278;50.826;9.030;2022-08-16T08:14:26;4.60;;;3.85;;
47535;SDS011;33278;50.826;9.030;2022-08-16T08:16:56;4.47;;;3.50;;
47535;SDS011;33278;50.826;9.030;2022-08-16T08:19:28;3.60;;;3.30;;
47535;SDS011;33278;50.826;9.030;2022-08-16T08:21:58;4.60;;;3.75;;
47535;SDS011;33278;50.826;9.030;2022-08-16T08:24:29;4.05;;;3.63;;
47535;SDS011;33278;50.826;9.030;2022-08-16T08:27:02;4.07;;;3.70;;
47535;SDS011;33278;50.826;9.030;2022-08-16T08:29:33;4.88;;;3.67;;
47535;SDS011;33278;50.826;9.030;2022-08-16T08:32:05;3.70;;;3.40;;
47535;SDS011;33278;50.826;9.030;2022-08-16T08:34:36;3.65;;;3.35;;
47535;SDS011;33278;50.826;9.030;2022-08-16T08:37:07;5.45;;;3.65;;
47535;SDS011;33278;50.826;9.030;2022-08-16T08:39:37;4.43;;;4.03;;
47535;SDS011;33278;50.826;9.030;2022-08-16T08:42:07;4.05;;;3.38;;
47535;SDS011;33278;50.826;9.030;2022-08-16T08:44:37;6.50;;;3.90;;
47535;SDS011;33278;50.826;9.030;2022-08-16T08:47:08;3.72;;;3.42;;
47535;SDS011;33278;50.826;9.030;2022-08-16T08:49:38;3.92;;;3.60;;
47535;SDS011;33278;50.826;9.030;2022-08-16T08:52:09;4.10;;;3.70;;
47535;SDS011;33278;50.826;9.030;2022-08-16T08:54:40;3.85;;;3.55;;
47535;SDS011;33278;50.826;9.030;2022-08-16T08:57:11;4.10;;;3.58;;
47535;SDS011;33278;50.826;9.030;2022-08-16T08:59:42;4.05;;;3.70;;
47535;SDS011;33278;50.826;9.030;2022-08-16T09:02:12;4.25;;;3.35;;
47535;SDS011;33278;50.826;9.030;2022-08-16T09:04:45;3.72;;;3.35;;
47535;SDS011;33278;50.826;9.030;2022-08-16T09:07:16;5.90;;;3.67;;
47535;SDS011;33278;50.826;9.030;2022-08-16T09:09:46;5.40;;;3.70;;
47535;SDS011;33278;50.826;9.030;2022-08-16T09:12:17;4.47;;;3.38;;
47535;SDS011;33278;50.826;9.030;2022-08-16T09:14:47;3.95;;;3.10;;
47535;SDS011;33278;50.826;9.030;2022-08-16T09:17:18;4.55;;;3.45;;
47535;SDS011;33278;50.826;9.030;2022-08-16T09:19:49;3.38;;;3.08;;
47535;SDS011;33278;50.826;9.030;2022-08-16T09:22:21;3.72;;;3.42;;
47535;SDS011;33278;50.826;9.030;2022-08-16T09:24:52;3.73;;;3.43;;
47535;SDS011;33278;50.826;9.030;2022-08-16T09:27:23;3.72;;;3.40;;
47535;SDS011;33278;50.826;9.030;2022-08-16T09:29:54;4.10;;;3.70;;
47535;SDS011;33278;50.826;9.030;2022-08-16T09:32:25;4.57;;;3.92;;
47535;SDS011;33278;50.826;9.030;2022-08-16T09:34:55;4.75;;;3.38;;
47535;SDS011;33278;50.826;9.030;2022-08-16T09:37:26;4.90;;;3.35;;
47535;SDS011;33278;50.826;9.030;2022-08-16T09:39:59;3.50;;;3.20;;
47535;SDS011;33278;50.826;9.030;2022-08-16T09:42:30;3.75;;;3.45;;
47535;SDS011;33278;50.826;9.030;2022-08-16T09:45:00;3.42;;;2.90;;
47535;SDS011;33278;50.826;9.030;2022-08-16T09:47:31;3.45;;;3.10;;
47535;SDS011;33278;50.826;9.030;2022-08-16T09:50:02;3.80;;;3.50;;
47535;SDS011;33278;50.826;9.030;2022-08-16T09:52:33;3.85;;;3.45;;
47535;SDS011;33278;50.826;9.030;2022-08-16T09:55:05;3.13;;;2.83;;
47535;SDS011;33278;50.826;9.030;2022-08-16T09:57:39;3.85;;;3.08;;
47535;SDS011;33278;50.826;9.030;2022-08-16T10:00:13;3.47;;;3.17;;
47535;SDS011;33278;50.826;9.030;2022-08-16T10:02:43;3.30;;;3.00;;
47535;SDS011;33278;50.826;9.030;2022-08-16T10:05:14;3.38;;;3.08;;
47535;SDS011;33278;50.826;9.030;2022-08-16T10:07:45;3.50;;;3.20;;
47535;SDS011;33278;50.826;9.030;2022-08-16T10:10:16;3.30;;;3.00;;
47535;SDS011;33278;50.826;9.030;2022-08-16T10:12:51;3.65;;;3.35;;
47535;SDS011;33278;50.826;9.030;2022-08-16T10:15:41;3.50;;;3.20;;
47535;SDS011;33278;50.826;9.030;2022-08-16T10:18:14;4.05;;;3.10;;
47535;SDS011;33278;50.826;9.030;2022-08-16T10:20:45;3.45;;;3.15;;
47535;SDS011;33278;50.826;9.030;2022-08-16T10:23:16;3.40;;;3.10;;
47535;SDS011;33278;50.826;9.030;2022-08-16T10:25:46;3.50;;;3.20;;
47535;SDS011;33278;50.826;9.030;2022-08-16T10:28:18;4.63;;;3.30;;
47535;SDS011;33278;50.826;9.030;2022-08-16T10:30:49;3.65;;;3.25;;
47535;SDS011;33278;50.826;9.030;2022-08-16T10:33:20;4.40;;;2.90;;
47535;SDS011;33278;50.826;9.030;2022-08-16T10:35:50;3.30;;;3.00;;
47535;SDS011;33278;50.826;9.030;2022-08-16T10:38:20;4.25;;;3.30;;
47535;SDS011;33278;50.826;9.030;2022-08-16T10:40:50;3.55;;;3.25;;
47535;SDS011;33278;50.826;9.030;2022-08-16T10:43:21;3.67;;;3.38;;
47535;SDS011;33278;50.826;9.030;2022-08-16T10:45:52;3.08;;;2.88;;
47535;SDS011;33278;50.826;9.030;2022-08-16T10:48:22;3.10;;;2.90;;
47535;SDS011;33278;50.826;9.030;2022-08-16T10:50:53;3.35;;;3.15;;
47535;SDS011;33278;50.826;9.030;2022-08-16T10:53:28;4.07;;;3.03;;
47535;SDS011;33278;50.826;9.030;2022-08-16T10:56:01;4.13;;;2.83;;
47535;SDS011;33278;50.826;9.030;2022-08-16T10:58:37;4.22;;;3.05;;
47535;SDS011;33278;50.826;9.030;2022-08-16T11:01:10;3.25;;;2.95;;
47535;SDS011;33278;50.826;9.030;2022-08-16T11:03:40;3.10;;;2.90;;
47535;SDS011;33278;50.826;9.030;2022-08-16T11:06:11;3.25;;;2.95;;
47535;SDS011;33278;50.826;9.030;2022-08-16T11:08:41;3.30;;;3.00;;
47535;SDS011;33278;50.826;9.030;2022-08-16T11:11:13;3.05;;;2.75;;
47535;SDS011;33278;50.826;9.030;2022-08-16T11:13:44;4.20;;;2.73;;
47535;SDS011;33278;50.826;9.030;2022-08-16T11:18:48;3.13;;;2.85;;
47535;SDS011;33278;50.826;9.030;2022-08-16T11:21:18;3.30;;;3.00;;
47535;SDS011;33278;50.826;9.030;2022-08-16T11:23:50;3.50;;;3.20;;
47535;SDS011;33278;50.826;9.030;2022-08-16T11:26:22;3.20;;;3.00;;
47535;SDS011;33278;50.826;9.030;2022-08-16T11:28:52;3.40;;;3.10;;
47535;SDS011;33278;50.826;9.030;2022-08-16T11:31:25;2.78;;;2.50;;
47535;SDS011;33278;50.826;9.030;2022-08-16T11:33:55;3.63;;;3.33;;
47535;SDS011;33278;50.826;9.030;2022-08-16T11:36:26;3.60;;;3.30;;
47535;SDS011;33278;50.826;9.030;2022-08-16T11:38:57;3.75;;;2.78;;
47535;SDS011;33278;50.826;9.030;2022-08-16T11:41:28;2.97;;;2.75;;
47535;SDS011;33278;50.826;9.030;2022-08-16T11:44:04;3.38;;;3.08;;
47535;SDS011;33278;50.826;9.030;2022-08-16T11:46:35;3.78;;;3.08;;
47535;SDS011;33278;50.826;9.030;2022-08-16T11:49:07;3.05;;;2.83;;
47535;SDS011;33278;50.826;9.030;2022-08-16T11:51:38;3.97;;;3.03;;
47535;SDS011;33278;50.826;9.030;2022-08-16T11:54:12;3.30;;;3.00;;
47535;SDS011;33278;50.826;9.030;2022-08-16T11:56:44;2.97;;;2.78;;
47535;SDS011;33278;50.826;9.030;2022-08-16T11:59:14;3.22;;;3.00;;
47535;SDS011;33278;50.826;9.030;2022-08-16T12:01:44;3.10;;;2.80;;
47535;SDS011;33278;50.826;9.030;2022-08-16T12:04:15;2.60;;;2.40;;
47535;SDS011;33278;50.826;9.030;2022-08-16T12:06:45;4.10;;;2.92;;
47535;SDS011;33278;50.826;9.030;2022-08-16T12:09:16;3.22;;;2.92;;
47535;SDS011;33278;50.826;9.030;2022-08-16T12:11:46;3.00;;;2.70;;
47535;SDS011;33278;50.826;9.030;2022-08-16T12:14:17;3.10;;;2.90;;
47535;SDS011;33278;50.826;9.030;2022-08-16T12:16:48;2.95;;;2.75;;
47535;SDS011;33278;50.826;9.030;2022-08-16T12:19:21;3.05;;;2.75;;
47535;SDS011;33278;50.826;9.030;2022-08-16T12:21:52;3.10;;;2.90;;
47535;SDS011;33278;50.826;9.030;2022-08-16T12:24:23;4.93;;;2.70;;
47535;SDS011;33278;50.826;9.030;2022-08-16T12:26:53;3.22;;;2.92;;
47535;SDS011;33278;50.826;9.030;2022-08-16T12:29:23;3.15;;;2.85;;
47535;SDS011;33278;50.826;9.030;2022-08-16T12:31:54;3.45;;;2.92;;
47535;SDS011;33278;50.826;9.030;2022-08-16T12:34:24;3.13;;;2.90;;
47535;SDS011;33278;50.826;9.030;2022-08-16T12:36:55;3.33;;;2.90;;
47535;SDS011;33278;50.826;9.030;2022-08-16T12:39:25;3.25;;;2.95;;
47535;SDS011;33278;50.826;9.030;2022-08-16T12:41:56;2.80;;;2.60;;
47535;SDS011;33278;50.826;9.030;2022-08-16T12:44:26;2.95;;;2.75;;
47535;SDS011;33278;50.826;9.030;2022-08-16T12:46:56;3.22;;;2.92;;
47535;SDS011;33278;50.826;9.030;2022-08-16T12:49:46;3.05;;;2.85;;
47535;SDS011;33278;50.826;9.030;2022-08-16T12:52:17;2.92;;;2.60;;
47535;SDS011;33278;50.826;9.030;2022-08-16T12:54:47;2.75;;;2.55;;
47535;SDS011;33278;50.826;9.030;2022-08-16T12:57:18;2.80;;;2.60;;
47535;SDS011;33278;50.826;9.030;2022-08-16T12:59:48;2.97;;;2.72;;
47535;SDS011;33278;50.826;9.030;2022-08-16T13:02:18;2.92;;;2.72;;
47535;SDS011;33278;50.826;9.030;2022-08-16T13:04:50;3.38;;;3.00;;
47535;SDS011;33278;50.826;9.030;2022-08-16T13:07:20;2.80;;;2.60;;
47535;SDS011;33278;50.826;9.030;2022-08-16T13:09:51;3.10;;;2.90;;
47535;SDS011;33278;50.826;9.030;2022-08-16T13:12:26;5.25;;;3.15;;
47535;SDS011;33278;50.826;9.030;2022-08-16T13:14:57;3.47;;;3.17;;
47535;SDS011;33278;50.826;9.030;2022-08-16T13:17:27;3.38;;;2.70;;
47535;SDS011;33278;50.826;9.030;2022-08-16T13:19:58;3.35;;;3.05;;
47535;SDS011;33278;50.826;9.030;2022-08-16T13:22:29;3.15;;;2.70;;
47535;SDS011;33278;50.826;9.030;2022-08-16T13:25:00;3.00;;;2.70;;
47535;SDS011;33278;50.826;9.030;2022-08-16T13:27:30;3.35;;;3.05;;
47535;SDS011;33278;50.826;9.030;2022-08-16T13:30:00;3.05;;;2.72;;
47535;SDS011;33278;50.826;9.030;2022-08-16T13:32:31;2.78;;;2.58;;
47535;SDS011;33278;50.826;9.030;2022-08-16T13:35:01;2.80;;;2.60;;
47535;SDS011;33278;50.826;9.030;2022-08-16T13:37:32;3.05;;;2.85;;
47535;SDS011;33278;50.826;9.030;2022-08-16T13:40:03;2.83;;;2.55;;
47535;SDS011;33278;50.826;9.030;2022-08-16T13:42:35;3.60;;;3.30;;
47535;SDS011;33278;50.826;9.030;2022-08-16T13:45:08;2.60;;;2.40;;
47535;SDS011;33278;50.826;9.030;2022-08-16T13:47:39;3.13;;;2.50;;
47535;SDS011;33278;50.826;9.030;2022-08-16T13:50:10;3.05;;;2.75;;
47535;SDS011;33278;50.826;9.030;2022-08-16T13:52:42;3.08;;;2.75;;
47535;SDS011;33278;50.826;9.030;2022-08-16T13:55:12;3.00;;;2.80;;
47535;SDS011;33278;50.826;9.030;2022-08-16T13:57:42;2.75;;;2.55;;
47535;SDS011;33278;50.826;9.030;2022-08-16T14:00:13;3.38;;;3.08;;
47535;SDS011;33278;50.826;9.030;2022-08-16T14:02:44;2.75;;;2.55;;
47535;SDS011;33278;50.826;9.030;2022-08-16T14:05:16;2.70;;;2.50;;
47535;SDS011;33278;50.826;9.030;2022-08-16T14:07:46;2.85;;;2.65;;
47535;SDS011;33278;50.826;9.030;2022-08-16T14:10:16;4.18;;;3.28;;
47535;SDS011;33278;50.826;9.030;2022-08-16T14:12:47;3.08;;;2.45;;
47535;SDS011;33278;50.826;9.030;2022-08-16T14:15:17;5.15;;;2.80;;
47535;SDS011;33278;50.826;9.030;2022-08-16T14:17:49;3.38;;;3.08;;
47535;SDS011;33278;50.826;9.030;2022-08-16T14:20:20;2.78;;;2.58;;
47535;SDS011;33278;50.826;9.030;2022-08-16T14:22:50;2.90;;;2.60;;
47535;SDS011;33278;50.826;9.030;2022-08-16T14:25:23;3.08;;;2.80;;
47535;SDS011;33278;50.826;9.030;2022-08-16T14:27:54;3.08;;;2.78;;
47535;SDS011;33278;50.826;9.030;2022-08-16T14:30:24;3.97;;;2.90;;
47535;SDS011;33278;50.826;9.030;2022-08-16T14:32:55;3.47;;;2.58;;
47535;SDS011;33278;50.826;9.030;2022-08-16T14:35:26;3.03;;;2.72;;
47535;SDS011;33278;50.826;9.030;2022-08-16T14:40:29;2.78;;;2.58;;
47535;SDS011;33278;50.826;9.030;2022-08-16T14:42:59;3.28;;;2.97;;
47535;SDS011;33278;50.826;9.030;2022-08-16T14:45:30;3.25;;;2.95;;
47535;SDS011;33278;50.826;9.030;2022-08-16T14:48:00;3.03;;;2.72;;
47535;SDS011;33278;50.826;9.030;2022-08-16T14:50:31;2.88;;;2.67;;
47535;SDS011;33278;50.826;9.030;2022-08-16T14:53:04;3.10;;;2.80;;
47535;SDS011;33278;50.826;9.030;2022-08-16T14:55:37;3.20;;;2.90;;
47535;SDS011;33278;50.826;9.030;2022-08-16T14:58:08;4.00;;;3.00;;
47535;SDS011;33278;50.826;9.030;2022-08-16T15:00:38;3.00;;;2.70;;
47535;SDS011;33278;50.826;9.030;2022-08-16T15:03:09;2.90;;;2.42;;
47535;SDS011;33278;50.826;9.030;2022-08-16T15:05:39;3.42;;;3.00;;
47535;SDS011;33278;50.826;9.030;2022-08-16T15:08:11;3.00;;;2.80;;
47535;SDS011;33278;50.826;9.030;2022-08-16T15:10:41;2.67;;;2.45;;
47535;SDS011;33278;50.826;9.030;2022-08-16T15:13:13;3.35;;;2.90;;
47535;SDS011;33278;50.826;9.030;2022-08-16T15:15:43;3.83;;;3.15;;
47535;SDS011;33278;50.826;9.030;2022-08-16T15:18:14;3.25;;;2.95;;
47535;SDS011;33278;50.826;9.030;2022-08-16T15:20:45;3.33;;;2.88;;
47535;SDS011;33278;50.826;9.030;2022-08-16T15:23:15;3.20;;;2.90;;
47535;SDS011;33278;50.826;9.030;2022-08-16T15:25:45;3.03;;;2.78;;
47535;SDS011;33278;50.826;9.030;2022-08-16T15:28:16;3.25;;;2.75;;